sensor_id;sensor_type;location;lat;lon;timestamp;pressure;altitude;pressure_sealevel;temperature;humidity
77106;BME280;66057;54.718;18.426;2023-03-31T00:00:10;99949.63;;;9.09;100.00
77106;BME280;66057;54.718;18.426;2023-03-31T00:02:56;99943.47;;;9.04;100.00
77106;BME280;66057;54.718;18.426;2023-03-31T00:05:25;99936.59;;;9.03;100.00
77106;BME280;66057;54.718;18.426;2023-03-31T00:07:55;99932.28;;;9.02;100.00
77106;BME280;66057;54.718;18.426;2023-03-31T00:10:32;99944.19;;;9.00;100.00
77106;BME280;66057;54.718;18.426;2023-03-31T00:13:01;99946.03;;;9.04;100.00
77106;BME280;66057;54.718;18.426;2023-03-31T00:15:27;99954.53;;;9.03;100.00
77106;BME280;66057;54.718;18.426;2023-03-31T00:17:53;99942.97;;;9.14;100.00
77106;BME280;66057;54.718;18.426;2023-03-31T00:20:19;99951.47;;;9.13;100.00
77106;BME280;66057;54.718;18.426;2023-03-31T00:22:45;99955.78;;;9.14;100.00
77106;BME280;66057;54.718;18.426;2023-03-31T00:25:14;99949.78;;;9.13;100.00
77106;BME280;66057;54.718;18.426;2023-03-31T00:27:41;99947.31;;;9.16;100.00
77106;BME280;66057;54.718;18.426;2023-03-31T00:30:09;99949.84;;;9.15;100.00
77106;BME280;66057;54.718;18.426;2023-03-31T00:32:35;99950.66;;;9.14;100.00
77106;BME280;66057;54.718;18.426;2023-03-31T00:35:01;99942.97;;;9.14;100.00
77106;BME280;66057;54.718;18.426;2023-03-31T00:37:27;99946.50;;;9.17;100.00
77106;BME280;66057;54.718;18.426;2023-03-31T00:39:54;99940.41;;;9.14;100.00
77106;BME280;66057;54.718;18.426;2023-03-31T00:42:20;99934.31;;;9.10;100.00
77106;BME280;66057;54.718;18.426;2023-03-31T00:47:33;99933.13;;;9.01;100.00
77106;BME280;66057;54.718;18.426;2023-03-31T00:49:59;99940.59;;;8.95;100.00
77106;BME280;66057;54.718;18.426;2023-03-31T00:52:31;99932.09;;;8.96;100.00
77106;BME280;66057;54.718;18.426;2023-03-31T00:55:07;99933.72;;;8.94;100.00
77106;BME280;66057;54.718;18.426;2023-03-31T00:57:35;99934.59;;;8.94;100.00
77106;BME280;66057;54.718;18.426;2023-03-31T01:00:07;99936.28;;;8.94;100.00
77106;BME280;66057;54.718;18.426;2023-03-31T01:02:41;99936.22;;;8.92;100.00
77106;BME280;66057;54.718;18.426;2023-03-31T01:05:17;99933.72;;;8.94;100.00
77106;BME280;66057;54.718;18.426;2023-03-31T01:07:47;99932.97;;;8.96;100.00
77106;BME280;66057;54.718;18.426;2023-03-31T01:10:15;99941.78;;;9.04;99.51
77106;BME280;66057;54.718;18.426;2023-03-31T01:12:43;99939.06;;;9.00;99.92
77106;BME280;66057;54.718;18.426;2023-03-31T01:15:10;99927.88;;;8.98;100.00
77106;BME280;66057;54.718;18.426;2023-03-31T01:17:36;99924.50;;;8.99;99.65
77106;BME280;66057;54.718;18.426;2023-03-31T01:31:09;99926.53;;;8.84;100.00
77106;BME280;66057;54.718;18.426;2023-03-31T01:34:02;99922.56;;;8.66;100.00
77106;BME280;66057;54.718;18.426;2023-03-31T01:42:35;99920.88;;;8.43;100.00
77106;BME280;66057;54.718;18.426;2023-03-31T01:45:25;99928.88;;;8.52;100.00
77106;BME280;66057;54.718;18.426;2023-03-31T01:47:54;99917.66;;;8.49;100.00
77106;BME280;66057;54.718;18.426;2023-03-31T01:53:03;99917.81;;;8.53;100.00
77106;BME280;66057;54.718;18.426;2023-03-31T01:55:39;99920.47;;;8.56;100.00
77106;BME280;66057;54.718;18.426;2023-03-31T01:58:11;99918.78;;;8.57;100.00
77106;BME280;66057;54.718;18.426;2023-03-31T02:00:46;99912.56;;;8.50;100.00
77106;BME280;66057;54.718;18.426;2023-03-31T02:03:23;99911.91;;;8.56;100.00
77106;BME280;66057;54.718;18.426;2023-03-31T02:05:59;99911.28;;;8.61;100.00
77106;BME280;66057;54.718;18.426;2023-03-31T02:08:28;99906.09;;;8.60;100.00
77106;BME280;66057;54.718;18.426;2023-03-31T02:10:56;99902.66;;;8.59;100.00
77106;BME280;66057;54.718;18.426;2023-03-31T02:13:26;99910.41;;;8.61;100.00
77106;BME280;66057;54.718;18.426;2023-03-31T02:15:56;99904.25;;;8.56;100.00
77106;BME280;66057;54.718;18.426;2023-03-31T02:18:28;99901.53;;;8.51;100.00
77106;BME280;66057;54.718;18.426;2023-03-31T02:20:58;99902.28;;;8.49;100.00
77106;BME280;66057;54.718;18.426;2023-03-31T02:23:27;99903.03;;;8.46;100.00
77106;BME280;66057;54.718;18.426;2023-03-31T02:26:02;99904.63;;;8.43;100.00
77106;BME280;66057;54.718;18.426;2023-03-31T02:28:30;99908.81;;;8.41;100.00
77106;BME280;66057;54.718;18.426;2023-03-31T02:32:07;99907.75;;;8.34;100.00
77106;BME280;66057;54.718;18.426;2023-03-31T02:34:04;99898.34;;;8.35;100.00
77106;BME280;66057;54.718;18.426;2023-03-31T02:36:30;99903.44;;;8.33;100.00
77106;BME280;66057;54.718;18.426;2023-03-31T02:39:08;99903.31;;;8.30;100.00
77106;BME280;66057;54.718;18.426;2023-03-31T02:41:34;99898.25;;;8.31;100.00
77106;BME280;66057;54.718;18.426;2023-03-31T02:44:00;99889.22;;;8.41;100.00
77106;BME280;66057;54.718;18.426;2023-03-31T02:46:26;99887.69;;;8.46;100.00
77106;BME280;66057;54.718;18.426;2023-03-31T02:48:55;99886.09;;;8.50;100.00
77106;BME280;66057;54.718;18.426;2023-03-31T02:57:27;99890.94;;;8.66;100.00
77106;BME280;66057;54.718;18.426;2023-03-31T03:03:05;99885.91;;;8.69;100.00
77106;BME280;66057;54.718;18.426;2023-03-31T03:05:50;99878.13;;;8.66;100.00
77106;BME280;66057;54.718;18.426;2023-03-31T03:11:20;99871.09;;;8.60;100.00
77106;BME280;66057;54.718;18.426;2023-03-31T03:16:57;99872.56;;;8.54;100.00
77106;BME280;66057;54.718;18.426;2023-03-31T03:19:24;99866.91;;;8.62;100.00
77106;BME280;66057;54.718;18.426;2023-03-31T03:21:50;99871.16;;;8.62;100.00
77106;BME280;66057;54.718;18.426;2023-03-31T03:24:17;99866.94;;;8.64;100.00
77106;BME280;66057;54.718;18.426;2023-03-31T03:26:44;99869.56;;;8.65;100.00
77106;BME280;66057;54.718;18.426;2023-03-31T03:29:10;99876.44;;;8.66;100.00
77106;BME280;66057;54.718;18.426;2023-03-31T03:31:42;99877.34;;;8.68;100.00
77106;BME280;66057;54.718;18.426;2023-03-31T03:34:08;99876.66;;;8.72;100.00
77106;BME280;66057;54.718;18.426;2023-03-31T03:36:37;99880.13;;;8.74;100.00
77106;BME280;66057;54.718;18.426;2023-03-31T03:39:06;99875.88;;;8.75;100.00
77106;BME280;66057;54.718;18.426;2023-03-31T03:41:32;99866.66;;;8.80;100.00
77106;BME280;66057;54.718;18.426;2023-03-31T03:43:59;99874.25;;;8.77;100.00
77106;BME280;66057;54.718;18.426;2023-03-31T03:46:26;99872.44;;;8.74;100.00
77106;BME280;66057;54.718;18.426;2023-03-31T03:48:51;99873.16;;;8.70;100.00
77106;BME280;66057;54.718;18.426;2023-03-31T03:51:17;99872.22;;;8.68;100.00
77106;BME280;66057;54.718;18.426;2023-03-31T03:53:43;99867.06;;;8.67;100.00
77106;BME280;66057;54.718;18.426;2023-03-31T03:56:12;99865.47;;;8.70;100.00
77106;BME280;66057;54.718;18.426;2023-03-31T03:58:37;99875.81;;;8.73;100.00
77106;BME280;66057;54.718;18.426;2023-03-31T04:01:03;99866.28;;;8.69;100.00
77106;BME280;66057;54.718;18.426;2023-03-31T04:03:29;99872.22;;;8.68;100.00
77106;BME280;66057;54.718;18.426;2023-03-31T04:05:55;99861.16;;;8.69;100.00
77106;BME280;66057;54.718;18.426;2023-03-31T04:08:21;99858.75;;;8.74;100.00
77106;BME280;66057;54.718;18.426;2023-03-31T04:10:47;99864.91;;;8.79;100.00
77106;BME280;66057;54.718;18.426;2023-03-31T04:13:14;99866.75;;;8.83;100.00
77106;BME280;66057;54.718;18.426;2023-03-31T04:15:41;99860.03;;;8.87;100.00
77106;BME280;66057;54.718;18.426;2023-03-31T04:18:07;99858.38;;;8.89;100.00
77106;BME280;66057;54.718;18.426;2023-03-31T04:20:38;99867.00;;;8.91;100.00
77106;BME280;66057;54.718;18.426;2023-03-31T04:23:04;99850.03;;;8.94;100.00
77106;BME280;66057;54.718;18.426;2023-03-31T04:25:35;99850.09;;;8.96;100.00
77106;BME280;66057;54.718;18.426;2023-03-31T04:28:03;99840.75;;;8.98;100.00
77106;BME280;66057;54.718;18.426;2023-03-31T04:30:31;99851.06;;;8.99;100.00
77106;BME280;66057;54.718;18.426;2023-03-31T04:33:01;99842.56;;;9.02;100.00
77106;BME280;66057;54.718;18.426;2023-03-31T04:35:29;99839.84;;;8.96;100.00
77106;BME280;66057;54.718;18.426;2023-03-31T04:38:15;99845.06;;;8.99;100.00
77106;BME280;66057;54.718;18.426;2023-03-31T04:40:47;99839.91;;;8.99;100.00
77106;BME280;66057;54.718;18.426;2023-03-31T04:43:13;99839.09;;;9.00;100.00
77106;BME280;66057;54.718;18.426;2023-03-31T04:45:40;99840.00;;;9.02;100.00
77106;BME280;66057;54.718;18.426;2023-03-31T04:48:05;99840.88;;;9.02;100.00
77106;BME280;66057;54.718;18.426;2023-03-31T04:50:31;99840.94;;;9.04;100.00
77106;BME280;66057;54.718;18.426;2023-03-31T04:52:57;99832.31;;;9.02;100.00
77106;BME280;66057;54.718;18.426;2023-03-31T04:55:23;99833.16;;;9.01;100.00
77106;BME280;66057;54.718;18.426;2023-03-31T04:57:48;99830.53;;;8.99;100.00
77106;BME280;66057;54.718;18.426;2023-03-31T05:00:14;99828.84;;;9.00;100.00
77106;BME280;66057;54.718;18.426;2023-03-31T05:02:40;99824.63;;;9.02;100.00
77106;BME280;66057;54.718;18.426;2023-03-31T05:05:06;99817.81;;;9.02;100.00
77106;BME280;66057;54.718;18.426;2023-03-31T05:07:31;99823.66;;;8.98;100.00
77106;BME280;66057;54.718;18.426;2023-03-31T05:09:57;99821.09;;;8.98;100.00
77106;BME280;66057;54.718;18.426;2023-03-31T05:12:23;99814.50;;;9.05;100.00
77106;BME280;66057;54.718;18.426;2023-03-31T05:14:50;99805.13;;;9.07;100.00
77106;BME280;66057;54.718;18.426;2023-03-31T05:17:15;99816.25;;;9.07;100.00
77106;BME280;66057;54.718;18.426;2023-03-31T05:19:42;99823.97;;;9.07;100.00
77106;BME280;66057;54.718;18.426;2023-03-31T05:22:11;99808.69;;;9.10;100.00
77106;BME280;66057;54.718;18.426;2023-03-31T05:24:36;99815.59;;;9.13;100.00
77106;BME280;66057;54.718;18.426;2023-03-31T05:27:02;99820.88;;;9.17;100.00
77106;BME280;66057;54.718;18.426;2023-03-31T05:29:28;99818.28;;;9.17;100.00
77106;BME280;66057;54.718;18.426;2023-03-31T05:31:55;99807.84;;;9.11;100.00
77106;BME280;66057;54.718;18.426;2023-03-31T05:34:21;99814.84;;;9.17;100.00
77106;BME280;66057;54.718;18.426;2023-03-31T05:36:46;99804.84;;;9.25;100.00
77106;BME280;66057;54.718;18.426;2023-03-31T05:39:12;99803.19;;;9.27;100.00
77106;BME280;66057;54.718;18.426;2023-03-31T05:41:38;99811.13;;;9.34;100.00
77106;BME280;66057;54.718;18.426;2023-03-31T05:44:04;99801.78;;;9.36;100.00
77106;BME280;66057;54.718;18.426;2023-03-31T05:46:30;99803.53;;;9.37;100.00
77106;BME280;66057;54.718;18.426;2023-03-31T05:48:56;99800.81;;;9.33;100.00
77106;BME280;66057;54.718;18.426;2023-03-31T05:51:24;99798.47;;;9.40;100.00
77106;BME280;66057;54.718;18.426;2023-03-31T05:53:50;99801.03;;;9.40;100.00
77106;BME280;66057;54.718;18.426;2023-03-31T05:56:16;99801.97;;;9.42;100.00
77106;BME280;66057;54.718;18.426;2023-03-31T05:58:42;99786.56;;;9.42;100.00
77106;BME280;66057;54.718;18.426;2023-03-31T06:01:13;99790.00;;;9.43;100.00
77106;BME280;66057;54.718;18.426;2023-03-31T06:03:44;99797.63;;;9.40;100.00
77106;BME280;66057;54.718;18.426;2023-03-31T06:06:10;99801.16;;;9.43;100.00
77106;BME280;66057;54.718;18.426;2023-03-31T06:08:42;99797.66;;;9.41;100.00
77106;BME280;66057;54.718;18.426;2023-03-31T06:11:10;99793.44;;;9.43;100.00
77106;BME280;66057;54.718;18.426;2023-03-31T06:13:37;99800.34;;;9.44;100.00
77106;BME280;66057;54.718;18.426;2023-03-31T06:16:03;99797.03;;;9.48;100.00
77106;BME280;66057;54.718;18.426;2023-03-31T06:18:30;99791.16;;;9.52;100.00
77106;BME280;66057;54.718;18.426;2023-03-31T06:20:56;99799.84;;;9.57;100.00
77106;BME280;66057;54.718;18.426;2023-03-31T06:23:23;99796.38;;;9.55;100.00
77106;BME280;66057;54.718;18.426;2023-03-31T06:25:50;99801.47;;;9.54;100.00
77106;BME280;66057;54.718;18.426;2023-03-31T06:28:16;99793.78;;;9.55;100.00
77106;BME280;66057;54.718;18.426;2023-03-31T06:30:42;99792.06;;;9.54;100.00
77106;BME280;66057;54.718;18.426;2023-03-31T06:33:07;99787.91;;;9.58;100.00
77106;BME280;66057;54.718;18.426;2023-03-31T06:35:36;99789.59;;;9.57;100.00
77106;BME280;66057;54.718;18.426;2023-03-31T06:38:02;99797.91;;;9.50;100.00
77106;BME280;66057;54.718;18.426;2023-03-31T06:40:28;99797.09;;;9.51;100.00
77106;BME280;66057;54.718;18.426;2023-03-31T06:42:54;99792.78;;;9.49;100.00
77106;BME280;66057;54.718;18.426;2023-03-31T06:45:20;99788.28;;;9.42;100.00
77106;BME280;66057;54.718;18.426;2023-03-31T06:47:45;99802.56;;;9.34;100.00
77106;BME280;66057;54.718;18.426;2023-03-31T06:50:11;99795.63;;;9.30;100.00
77106;BME280;66057;54.718;18.426;2023-03-31T06:52:37;99799.88;;;9.29;100.00
77106;BME280;66057;54.718;18.426;2023-03-31T06:55:05;99792.13;;;9.28;100.00
77106;BME280;66057;54.718;18.426;2023-03-31T06:57:31;99795.56;;;9.28;100.00
77106;BME280;66057;54.718;18.426;2023-03-31T06:59:58;99793.81;;;9.27;100.00
77106;BME280;66057;54.718;18.426;2023-03-31T07:02:24;99792.84;;;9.24;100.00
77106;BME280;66057;54.718;18.426;2023-03-31T07:04:50;99792.13;;;9.28;100.00
77106;BME280;66057;54.718;18.426;2023-03-31T07:07:15;99788.06;;;9.34;100.00
77106;BME280;66057;54.718;18.426;2023-03-31T07:09:41;99793.13;;;9.33;100.00
77106;BME280;66057;54.718;18.426;2023-03-31T07:12:07;99800.63;;;9.27;100.00
77106;BME280;66057;54.718;18.426;2023-03-31T07:14:32;99793.06;;;9.31;100.00
77106;BME280;66057;54.718;18.426;2023-03-31T07:16:58;99792.13;;;9.28;100.00
77106;BME280;66057;54.718;18.426;2023-03-31T07:19:24;99790.28;;;9.24;100.00
77106;BME280;66057;54.718;18.426;2023-03-31T07:21:50;99787.88;;;9.28;100.00
77106;BME280;66057;54.718;18.426;2023-03-31T07:24:16;99792.34;;;9.35;100.00
77106;BME280;66057;54.718;18.426;2023-03-31T07:26:42;99794.19;;;9.39;100.00
77106;BME280;66057;54.718;18.426;2023-03-31T07:29:07;99787.31;;;9.38;100.00
77106;BME280;66057;54.718;18.426;2023-03-31T07:31:33;99791.50;;;9.36;100.00
77106;BME280;66057;54.718;18.426;2023-03-31T07:34:01;99786.56;;;9.42;100.00
77106;BME280;66057;54.718;18.426;2023-03-31T07:36:27;99795.91;;;9.40;100.00
77106;BME280;66057;54.718;18.426;2023-03-31T07:38:53;99793.34;;;9.40;100.00
77106;BME280;66057;54.718;18.426;2023-03-31T07:41:20;99790.97;;;9.46;100.00
77106;BME280;66057;54.718;18.426;2023-03-31T07:43:46;99784.00;;;9.42;100.00
77106;BME280;66057;54.718;18.426;2023-03-31T07:46:18;99794.06;;;9.36;100.00
77106;BME280;66057;54.718;18.426;2023-03-31T07:48:44;99795.06;;;9.40;100.00
77106;BME280;66057;54.718;18.426;2023-03-31T07:51:12;99792.34;;;9.35;100.00
77106;BME280;66057;54.718;18.426;2023-03-31T07:53:38;99791.50;;;9.36;100.00
77106;BME280;66057;54.718;18.426;2023-03-31T07:56:04;99798.25;;;9.33;100.00
77106;BME280;66057;54.718;18.426;2023-03-31T07:58:29;99805.91;;;9.31;100.00
77106;BME280;66057;54.718;18.426;2023-03-31T08:00:55;99790.50;;;9.31;100.00
77106;BME280;66057;54.718;18.426;2023-03-31T08:03:21;99793.34;;;9.40;100.00
77106;BME280;66057;54.718;18.426;2023-03-31T08:05:46;99793.72;;;9.52;100.00
77106;BME280;66057;54.718;18.426;2023-03-31T08:08:15;99784.53;;;9.60;100.00
77106;BME280;66057;54.718;18.426;2023-03-31T08:10:42;99783.38;;;9.79;100.00
77106;BME280;66057;54.718;18.426;2023-03-31T08:13:07;99791.25;;;9.85;100.00
77106;BME280;66057;54.718;18.426;2023-03-31T08:15:33;99783.50;;;9.84;100.00
77106;BME280;66057;54.718;18.426;2023-03-31T08:17:58;99782.41;;;10.05;100.00
77106;BME280;66057;54.718;18.426;2023-03-31T08:20:24;99784.03;;;10.03;100.00
77106;BME280;66057;54.718;18.426;2023-03-31T08:22:49;99775.91;;;10.17;100.00
77106;BME280;66057;54.718;18.426;2023-03-31T08:25:16;99776.56;;;10.11;99.56
77106;BME280;66057;54.718;18.426;2023-03-31T08:27:41;99770.38;;;10.04;98.78
77106;BME280;66057;54.718;18.426;2023-03-31T08:30:09;99764.94;;;9.92;99.02
77106;BME280;66057;54.718;18.426;2023-03-31T08:32:35;99771.69;;;9.90;99.20
77106;BME280;66057;54.718;18.426;2023-03-31T08:35:05;99768.84;;;9.80;99.56
77106;BME280;66057;54.718;18.426;2023-03-31T08:37:30;99763.81;;;9.83;99.67
77106;BME280;66057;54.718;18.426;2023-03-31T08:39:57;99757.81;;;9.84;100.00
77106;BME280;66057;54.718;18.426;2023-03-31T08:42:42;99769.00;;;9.86;100.00
77106;BME280;66057;54.718;18.426;2023-03-31T08:47:39;99762.81;;;9.78;100.00
77106;BME280;66057;54.718;18.426;2023-03-31T08:50:12;99757.69;;;9.78;100.00
77106;BME280;66057;54.718;18.426;2023-03-31T08:52:47;99762.00;;;9.80;100.00
77106;BME280;66057;54.718;18.426;2023-03-31T08:55:28;99759.75;;;9.91;100.00
77106;BME280;66057;54.718;18.426;2023-03-31T09:00:22;99766.41;;;9.84;100.00
77106;BME280;66057;54.718;18.426;2023-03-31T09:02:58;99753.69;;;9.89;100.00
77106;BME280;66057;54.718;18.426;2023-03-31T09:05:34;99761.97;;;9.79;100.00
77106;BME280;66057;54.718;18.426;2023-03-31T09:11:18;99762.88;;;9.81;100.00
77106;BME280;66057;54.718;18.426;2023-03-31T09:16:38;99767.22;;;9.83;100.00
77106;BME280;66057;54.718;18.426;2023-03-31T09:19:15;99758.56;;;9.80;100.00
77106;BME280;66057;54.718;18.426;2023-03-31T09:21:45;99762.72;;;9.75;100.00
77106;BME280;66057;54.718;18.426;2023-03-31T09:24:19;99769.00;;;9.86;100.00
77106;BME280;66057;54.718;18.426;2023-03-31T09:32:20;99751.88;;;9.85;100.00
77106;BME280;66057;54.718;18.426;2023-03-31T09:34:50;99758.75;;;9.86;100.00
77106;BME280;66057;54.718;18.426;2023-03-31T09:37:17;99756.13;;;9.84;100.00
77106;BME280;66057;54.718;18.426;2023-03-31T09:39:42;99757.34;;;9.97;100.00
77106;BME280;66057;54.718;18.426;2023-03-31T09:42:12;99764.19;;;9.98;99.47
77106;BME280;66057;54.718;18.426;2023-03-31T09:44:45;99761.22;;;10.14;98.73
77106;BME280;66057;54.718;18.426;2023-03-31T09:47:36;99769.75;;;10.13;98.88
77106;BME280;66057;54.718;18.426;2023-03-31T09:50:06;99765.44;;;10.12;99.38
77106;BME280;66057;54.718;18.426;2023-03-31T09:53:09;99766.44;;;10.16;98.42
77106;BME280;66057;54.718;18.426;2023-03-31T09:55:33;99777.72;;;10.22;98.69
77106;BME280;66057;54.718;18.426;2023-03-31T09:58:05;99762.28;;;10.21;98.22
77106;BME280;66057;54.718;18.426;2023-03-31T10:00:32;99764.63;;;10.13;99.17
77106;BME280;66057;54.718;18.426;2023-03-31T10:03:02;99770.19;;;10.28;98.70
77106;BME280;66057;54.718;18.426;2023-03-31T10:05:35;99762.69;;;10.36;98.29
77106;BME280;66057;54.718;18.426;2023-03-31T10:10:36;99771.41;;;10.42;98.47
77106;BME280;66057;54.718;18.426;2023-03-31T10:13:08;99779.97;;;10.43;97.26
77106;BME280;66057;54.718;18.426;2023-03-31T10:15:37;99768.19;;;10.51;98.37
77106;BME280;66057;54.718;18.426;2023-03-31T10:18:03;99770.59;;;10.43;98.46
77106;BME280;66057;54.718;18.426;2023-03-31T10:20:36;99775.13;;;10.21;98.08
77106;BME280;66057;54.718;18.426;2023-03-31T10:23:11;99782.59;;;10.13;98.99
77106;BME280;66057;54.718;18.426;2023-03-31T10:25:42;99774.88;;;10.12;98.65
77106;BME280;66057;54.718;18.426;2023-03-31T10:28:10;99772.28;;;10.12;98.75
77106;BME280;66057;54.718;18.426;2023-03-31T10:30:37;99772.38;;;10.15;98.68
77106;BME280;66057;54.718;18.426;2023-03-31T10:33:10;99768.09;;;10.15;98.18
77106;BME280;66057;54.718;18.426;2023-03-31T10:35:39;99766.78;;;10.29;98.66
77106;BME280;66057;54.718;18.426;2023-03-31T10:38:10;99768.44;;;10.27;98.13
77106;BME280;66057;54.718;18.426;2023-03-31T10:40:36;99771.94;;;10.29;97.19
77106;BME280;66057;54.718;18.426;2023-03-31T10:43:13;99773.34;;;10.18;97.81
77106;BME280;66057;54.718;18.426;2023-03-31T10:45:47;99765.81;;;10.24;97.72
77106;BME280;66057;54.718;18.426;2023-03-31T10:50:44;99770.03;;;10.22;98.01
77106;BME280;66057;54.718;18.426;2023-03-31T10:53:12;99769.19;;;10.23;97.64
77106;BME280;66057;54.718;18.426;2023-03-31T10:55:45;99759.91;;;10.28;97.96
77106;BME280;66057;54.718;18.426;2023-03-31T11:07:00;99764.63;;;10.44;97.81
77106;BME280;66057;54.718;18.426;2023-03-31T11:09:34;99762.75;;;10.39;97.29
77106;BME280;66057;54.718;18.426;2023-03-31T11:12:23;99766.47;;;10.17;97.89
77106;BME280;66057;54.718;18.426;2023-03-31T11:15:24;99764.47;;;10.07;97.69
77106;BME280;66057;54.718;18.426;2023-03-31T11:23:40;99761.31;;;10.16;97.54
77106;BME280;66057;54.718;18.426;2023-03-31T11:26:21;99765.41;;;10.11;97.67
77106;BME280;66057;54.718;18.426;2023-03-31T11:32:19;99761.16;;;10.11;97.57
77106;BME280;66057;54.718;18.426;2023-03-31T11:40:51;99760.38;;;9.84;98.71
77106;BME280;66057;54.718;18.426;2023-03-31T11:46:21;99758.75;;;9.86;99.08
77106;BME280;66057;54.718;18.426;2023-03-31T11:48:54;99753.78;;;9.92;98.23
77106;BME280;66057;54.718;18.426;2023-03-31T11:51:29;99754.03;;;10.01;97.61
77106;BME280;66057;54.718;18.426;2023-03-31T11:54:01;99749.13;;;10.10;97.83
77106;BME280;66057;54.718;18.426;2023-03-31T11:56:40;99745.06;;;10.17;97.90
77106;BME280;66057;54.718;18.426;2023-03-31T11:59:06;99750.22;;;10.17;97.51
77106;BME280;66057;54.718;18.426;2023-03-31T12:04:28;99747.41;;;10.42;97.36
77106;BME280;66057;54.718;18.426;2023-03-31T12:07:03;99746.69;;;10.47;96.80
77106;BME280;66057;54.718;18.426;2023-03-31T12:09:49;99737.06;;;10.73;96.81
77106;BME280;66057;54.718;18.426;2023-03-31T12:12:23;99731.47;;;10.91;95.82
77106;BME280;66057;54.718;18.426;2023-03-31T12:15:13;99726.47;;;10.99;94.65
77106;BME280;66057;54.718;18.426;2023-03-31T12:17:44;99726.66;;;11.87;92.61
77106;BME280;66057;54.718;18.426;2023-03-31T12:20:25;99727.72;;;11.56;92.10
77106;BME280;66057;54.718;18.426;2023-03-31T12:22:53;99715.41;;;11.01;91.96
77106;BME280;66057;54.718;18.426;2023-03-31T12:25:21;99726.44;;;10.96;92.69
77106;BME280;66057;54.718;18.426;2023-03-31T12:27:52;99726.13;;;10.82;93.25
77106;BME280;66057;54.718;18.426;2023-03-31T12:32:48;99712.34;;;10.78;92.71
77106;BME280;66057;54.718;18.426;2023-03-31T12:42:59;99715.09;;;10.52;94.95
77106;BME280;66057;54.718;18.426;2023-03-31T12:45:27;99711.88;;;10.60;94.88
77106;BME280;66057;54.718;18.426;2023-03-31T12:48:16;99709.78;;;10.80;94.94
77106;BME280;66057;54.718;18.426;2023-03-31T12:56:19;99705.16;;;10.65;94.19
77106;BME280;66057;54.718;18.426;2023-03-31T12:58:49;99706.31;;;10.78;94.46
77106;BME280;66057;54.718;18.426;2023-03-31T13:01:17;99704.72;;;10.83;94.05
77106;BME280;66057;54.718;18.426;2023-03-31T13:09:01;99709.72;;;10.77;94.28
77106;BME280;66057;54.718;18.426;2023-03-31T13:14:11;99714.50;;;10.62;94.53
77106;BME280;66057;54.718;18.426;2023-03-31T13:16:38;99713.06;;;10.73;95.08
77106;BME280;66057;54.718;18.426;2023-03-31T13:19:04;99702.78;;;10.73;94.13
77106;BME280;66057;54.718;18.426;2023-03-31T13:21:30;99698.91;;;10.54;95.11
77106;BME280;66057;54.718;18.426;2023-03-31T13:24:00;99696.19;;;10.48;95.39
77106;BME280;66057;54.718;18.426;2023-03-31T13:34:45;99697.84;;;10.13;97.97
77106;BME280;66057;54.718;18.426;2023-03-31T13:37:23;99696.84;;;10.08;98.98
77106;BME280;66057;54.718;18.426;2023-03-31T13:40:12;99691.78;;;10.10;99.13
77106;BME280;66057;54.718;18.426;2023-03-31T13:46:21;99691.78;;;9.77;99.28
77106;BME280;66057;54.718;18.426;2023-03-31T13:54:23;99687.63;;;9.50;100.00
77106;BME280;66057;54.718;18.426;2023-03-31T14:03:18;99688.94;;;9.36;100.00
77106;BME280;66057;54.718;18.426;2023-03-31T14:06:18;99678.94;;;9.45;100.00
77106;BME280;66057;54.718;18.426;2023-03-31T14:08:50;99677.66;;;9.61;100.00
77106;BME280;66057;54.718;18.426;2023-03-31T14:11:27;99679.09;;;9.51;100.00
77106;BME280;66057;54.718;18.426;2023-03-31T14:21:54;99671.63;;;8.71;100.00
77106;BME280;66057;54.718;18.426;2023-03-31T14:27:19;99680.53;;;8.55;100.00
77106;BME280;66057;54.718;18.426;2023-03-31T14:32:45;99667.59;;;8.79;100.00
77106;BME280;66057;54.718;18.426;2023-03-31T14:35:30;99670.50;;;8.90;100.00
77106;BME280;66057;54.718;18.426;2023-03-31T14:37:58;99678.50;;;9.00;100.00
77106;BME280;66057;54.718;18.426;2023-03-31T14:40:27;99673.63;;;9.09;100.00
77106;BME280;66057;54.718;18.426;2023-03-31T14:42:53;99671.03;;;9.08;100.00
77106;BME280;66057;54.718;18.426;2023-03-31T14:45:22;99679.00;;;8.89;100.00
77106;BME280;66057;54.718;18.426;2023-03-31T14:48:10;99670.97;;;8.78;100.00
77106;BME280;66057;54.718;18.426;2023-03-31T14:50:41;99678.53;;;8.73;100.00
77106;BME280;66057;54.718;18.426;2023-03-31T14:53:22;99681.94;;;8.72;100.00
77106;BME280;66057;54.718;18.426;2023-03-31T14:55:49;99672.50;;;8.71;100.00
77106;BME280;66057;54.718;18.426;2023-03-31T14:58:35;99670.69;;;8.67;100.00
77106;BME280;66057;54.718;18.426;2023-03-31T15:01:04;99671.03;;;8.80;100.00
77106;BME280;66057;54.718;18.426;2023-03-31T15:03:33;99668.41;;;8.78;100.00
77106;BME280;66057;54.718;18.426;2023-03-31T15:06:02;99661.44;;;8.72;100.00
77106;BME280;66057;54.718;18.426;2023-03-31T15:08:30;99661.78;;;8.85;100.00
77106;BME280;66057;54.718;18.426;2023-03-31T15:10:58;99661.88;;;8.88;100.00
77106;BME280;66057;54.718;18.426;2023-03-31T15:13:33;99666.78;;;8.80;100.00
77106;BME280;66057;54.718;18.426;2023-03-31T15:18:58;99658.00;;;8.45;100.00
77106;BME280;66057;54.718;18.426;2023-03-31T15:21:26;99657.84;;;8.14;100.00
77106;BME280;66057;54.718;18.426;2023-03-31T15:23:57;99659.72;;;7.94;100.00
77106;BME280;66057;54.718;18.426;2023-03-31T15:27:12;99659.06;;;7.74;100.00
77106;BME280;66057;54.718;18.426;2023-03-31T15:29:37;99659.53;;;7.88;100.00
77106;BME280;66057;54.718;18.426;2023-03-31T15:32:06;99644.59;;;8.00;100.00
77106;BME280;66057;54.718;18.426;2023-03-31T15:34:36;99640.44;;;8.04;100.00
77106;BME280;66057;54.718;18.426;2023-03-31T15:37:02;99645.56;;;8.04;100.00